Terminal Aerodrome Forecast
Issued by NWS

Home | Current Version | Previous Version | Text Only | Print | Product List | Glossary On
Versions: 1 2 3 4 5 6 7 8 9 10 11 12 13 14 15 16 17 18 19 20 21 22 23 24 25 26 27 28 29 30 31 32 33 34 35 36 37
000
FTUS41 KOKX 271931 AAA
TAFTEB
TAF AMD
KTEB 271931Z 2720/2818 23011G19KT P6SM SCT070 BKN100
     FM272200 20007KT P6SM BKN100
     FM280300 20005KT P6SM OVC080
     FM280800 13003KT P6SM FEW003 OVC080 PROB30 2808/2811 5SM -RA
     FM281500 14007KT P6SM FEW010 OVC090=

USA.gov is the U.S. government's official web portal to all federal, state and local government web resources and services.